createdAt,value
2019-05-22T00:03:36.659Z,98
2019-05-22T00:09:09.258Z,98
2019-05-22T00:14:41.785Z,98
2019-05-22T00:20:14.365Z,98
2019-05-22T00:25:46.980Z,98
2019-05-22T00:31:19.412Z,98
2019-05-22T00:36:52.018Z,98
2019-05-22T00:42:24.518Z,98
2019-05-22T00:47:56.965Z,98
2019-05-22T00:53:29.509Z,98
2019-05-22T00:59:02.014Z,99
2019-05-22T01:04:34.425Z,99
2019-05-22T01:10:07.298Z,99
2019-05-22T01:15:39.305Z,99
2019-05-22T01:21:11.721Z,99
2019-05-22T01:26:44.037Z,99
2019-05-22T01:32:16.578Z,99
2019-05-22T01:37:49.605Z,99
2019-05-22T01:43:22.253Z,99
2019-05-22T01:48:55.407Z,99
2019-05-22T01:54:28.521Z,99
2019-05-22T02:00:01.645Z,99
2019-05-22T02:05:33.966Z,98
2019-05-22T02:11:06.303Z,98
2019-05-22T02:16:53.852Z,97
2019-05-22T02:22:12.052Z,96
2019-05-22T02:27:45.194Z,96
2019-05-22T02:33:17.731Z,96
2019-05-22T02:38:50.045Z,97
2019-05-22T02:44:22.318Z,97
2019-05-22T02:49:54.511Z,97
2019-05-22T02:55:26.721Z,97
2019-05-22T03:00:58.931Z,97
2019-05-22T03:06:31.222Z,97
2019-05-22T03:12:03.493Z,98
2019-05-22T03:17:35.719Z,99
2019-05-22T03:23:08.605Z,100
2019-05-22T03:28:40.198Z,100
2019-05-22T03:34:12.395Z,100
2019-05-22T03:39:44.690Z,100
2019-05-22T03:45:16.934Z,100
2019-05-22T03:50:49.151Z,100
2019-05-22T03:56:21.395Z,100
2019-05-22T04:01:53.602Z,100
2019-05-22T04:07:25.744Z,101
2019-05-22T04:12:57.978Z,101
2019-05-22T04:18:31.601Z,101
2019-05-22T04:24:02.310Z,101
2019-05-22T04:29:35.050Z,101
2019-05-22T04:35:08.205Z,101
2019-05-22T04:40:41.443Z,101
2019-05-22T04:46:14.665Z,101
2019-05-22T04:51:47.899Z,100
2019-05-22T04:57:20.912Z,100
2019-05-22T05:02:53.371Z,100
2019-05-22T05:08:26.393Z,101
2019-05-22T05:13:59.599Z,101
2019-05-22T05:19:32.892Z,101
2019-05-22T05:25:06.104Z,101
2019-05-22T05:30:39.448Z,101
2019-05-22T05:36:12.764Z,101
2019-05-22T05:41:46.108Z,101
2019-05-22T05:47:19.473Z,101
2019-05-22T05:52:52.902Z,101
2019-05-22T05:58:25.737Z,101
2019-05-22T06:03:59.044Z,101
2019-05-22T06:09:32.509Z,102
2019-05-22T06:15:05.196Z,102
2019-05-22T06:20:37.940Z,102
2019-05-22T06:26:10.781Z,102
2019-05-22T06:31:43.521Z,102
2019-05-22T06:37:16.625Z,102
2019-05-22T06:42:50.371Z,102
2019-05-22T06:48:24.090Z,103
2019-05-22T06:53:57.872Z,103
2019-05-22T06:59:31.893Z,103
2019-05-22T07:05:05.994Z,102
2019-05-22T07:10:40.031Z,102
2019-05-22T07:16:14.236Z,101
2019-05-22T07:21:48.556Z,101
2019-05-22T07:27:22.827Z,101
2019-05-22T07:32:57.309Z,88
2019-05-22T07:38:31.729Z,92
2019-05-22T07:44:06.196Z,90
2019-05-22T07:49:40.711Z,89
2019-05-22T07:55:15.181Z,88
2019-05-22T08:00:49.745Z,87
2019-05-22T08:06:24.278Z,88
2019-05-22T08:11:58.897Z,83
2019-05-22T08:17:33.505Z,83
2019-05-22T08:23:08.148Z,82
2019-05-22T08:28:42.872Z,80
2019-05-22T08:34:17.654Z,79
2019-05-22T08:39:52.600Z,75
2019-05-22T08:45:27.460Z,75
2019-05-22T08:51:02.491Z,73
2019-05-22T08:56:37.574Z,72
2019-05-22T09:02:12.730Z,75
2019-05-22T09:07:47.854Z,70
2019-05-22T09:13:22.797Z,68
2019-05-22T09:18:58.113Z,69
2019-05-22T09:24:33.813Z,66
2019-05-22T09:30:08.822Z,66
2019-05-22T09:35:44.371Z,66
2019-05-22T09:41:19.742Z,57
2019-05-22T09:46:55.241Z,55
2019-05-22T09:52:30.266Z,55
2019-05-22T09:58:05.692Z,49
2019-05-22T10:03:41.075Z,57
2019-05-22T10:09:16.239Z,57
2019-05-22T10:14:51.236Z,58
2019-05-22T10:20:26.174Z,56
2019-05-22T10:26:01.386Z,51
2019-05-22T10:31:36.792Z,55
2019-05-22T10:37:12.272Z,50
2019-05-22T10:42:47.605Z,51
2019-05-22T10:48:22.926Z,54
2019-05-22T10:53:58.423Z,55
2019-05-22T10:59:33.980Z,50
2019-05-22T11:10:45.942Z,48
2019-05-22T11:16:21.800Z,51
2019-05-22T11:21:57.526Z,49
2019-05-22T11:27:33.215Z,49
2019-05-22T11:33:08.747Z,48
2019-05-22T11:38:44.504Z,47
2019-05-22T11:44:20.529Z,46
2019-05-22T11:49:55.744Z,45
2019-05-22T11:55:43.331Z,44
2019-05-22T12:01:07.304Z,45
2019-05-22T12:06:43.131Z,43
2019-05-22T12:12:18.608Z,42
2019-05-22T12:17:54.326Z,46
2019-05-22T12:23:30.379Z,48
2019-05-22T12:29:06.370Z,46
2019-05-22T12:34:41.940Z,44
2019-05-22T12:40:17.500Z,47
2019-05-22T12:45:53.596Z,47
2019-05-22T12:51:29.839Z,45
2019-05-22T12:57:04.900Z,46
2019-05-22T13:02:42.383Z,46
2019-05-22T13:08:20.472Z,51
2019-05-22T13:13:55.648Z,52
2019-05-22T13:19:30.627Z,50
2019-05-22T13:25:05.102Z,48
2019-05-22T13:30:39.409Z,50
2019-05-22T13:36:14.372Z,50
2019-05-22T13:41:49.377Z,51
2019-05-22T13:47:24.049Z,46
2019-05-22T13:52:58.374Z,50
2019-05-22T13:58:32.458Z,50
2019-05-22T14:04:07.218Z,55
2019-05-22T14:09:42.147Z,52
2019-05-22T14:15:17.070Z,46
2019-05-22T14:20:51.246Z,52
2019-05-22T14:26:25.582Z,52
2019-05-22T14:32:01.042Z,50
2019-05-22T14:37:36.805Z,50
2019-05-22T14:43:12.693Z,52
2019-05-22T14:48:49.275Z,51
2019-05-22T14:54:25.816Z,48
2019-05-22T15:00:02.503Z,49
2019-05-22T15:05:40.609Z,47
2019-05-22T15:11:16.262Z,50
2019-05-22T15:16:53.164Z,50
2019-05-22T15:22:29.780Z,48
2019-05-22T15:28:06.516Z,50
2019-05-22T15:33:43.051Z,46
2019-05-22T15:39:19.828Z,47
2019-05-22T15:44:56.686Z,49
2019-05-22T15:50:33.430Z,47
2019-05-22T15:56:10.232Z,50
2019-05-22T16:07:24.776Z,46
2019-05-22T16:13:01.939Z,49
2019-05-22T16:18:38.449Z,47
2019-05-22T16:24:15.018Z,48
2019-05-22T16:29:51.390Z,48
2019-05-22T16:35:27.640Z,48
2019-05-22T16:41:03.922Z,48
2019-05-22T16:46:40.115Z,48
2019-05-22T16:52:16.251Z,48
2019-05-22T16:57:52.296Z,47
2019-05-22T17:03:28.216Z,47
2019-05-22T17:09:04.417Z,50
2019-05-22T17:14:40.832Z,47
2019-05-22T17:20:16.726Z,47
2019-05-22T17:25:52.269Z,50
2019-05-22T17:31:27.705Z,46
2019-05-22T17:37:03.319Z,47
2019-05-22T17:42:38.736Z,46
2019-05-22T17:48:14.312Z,47
2019-05-22T17:53:49.781Z,44
2019-05-22T17:59:25.720Z,47
2019-05-22T18:05:01.044Z,45
2019-05-22T18:10:40.089Z,44
2019-05-22T18:16:11.387Z,45
2019-05-22T18:21:46.437Z,44
2019-05-22T18:27:25.016Z,44
2019-05-22T20:34:33.834Z,60
2019-05-22T20:40:08.112Z,61
2019-05-22T20:45:41.544Z,61
2019-05-22T20:51:15.393Z,66
2019-05-22T20:56:49.150Z,64
2019-05-22T21:02:22.982Z,67
2019-05-22T21:07:56.698Z,64
2019-05-22T21:13:29.934Z,66
2019-05-22T21:19:03.188Z,62
2019-05-22T21:24:36.555Z,66
2019-05-22T21:30:08.758Z,65
2019-05-22T21:35:41.602Z,64
2019-05-22T21:41:14.400Z,67
2019-05-22T21:46:47.095Z,71
2019-05-22T21:52:19.871Z,64
2019-05-22T21:57:52.545Z,70
2019-05-22T22:03:25.205Z,70
2019-05-22T22:08:57.835Z,73
2019-05-22T22:14:30.446Z,75
2019-05-22T22:20:03.001Z,75
2019-05-22T22:25:35.523Z,73
2019-05-22T22:31:08.028Z,74
2019-05-22T22:36:40.539Z,75
2019-05-22T22:42:13.069Z,75
2019-05-22T22:47:45.503Z,72
2019-05-22T22:53:18.030Z,73
2019-05-22T22:58:51.341Z,71
2019-05-22T23:04:24.677Z,73
2019-05-22T23:09:58.011Z,71
2019-05-22T23:15:31.361Z,72
2019-05-22T23:21:04.674Z,72
2019-05-22T23:26:38.002Z,74
2019-05-22T23:32:11.280Z,69
2019-05-22T23:37:44.567Z,74
2019-05-22T23:43:17.898Z,74
2019-05-22T23:48:51.220Z,73
2019-05-22T23:54:24.271Z,73
2019-05-22T23:59:57.492Z,71
